Time;durP1;ratioP1;P1;durP2;ratioP2;P2;SDS_P1;SDS_P2;PMS_P1;PMS_P2;Temp;Humidity;BMP_temperature;BMP_pressure;BME280_temperature;BME280_humidity;BME280_pressure;Samples;Min_cycle;Max_cycle;Signal;HPM_P1;HPM_P2
2021/09/21 00:01:32;;;;;;;5.55;5.13;;;;;;;32.58;19.88;94789.44;5014512;28;20057;-44
2021/09/21 00:03:59;;;;;;;6.75;4.97;;;;;;;32.99;19.86;94791.69;5027718;28;20049;-44
2021/09/21 00:06:26;;;;;;;5.55;5.05;;;;;;;32.99;19.51;94802.50;5026650;28;20049;-44
2021/09/21 00:08:53;;;;;;;5.63;5.15;;;;;;;32.73;20.19;94795.31;5013594;28;20050;-44
2021/09/21 00:11:21;;;;;;;5.43;4.53;;;;;;;32.79;19.72;94799.06;5014714;28;20056;-45
2021/09/21 00:13:48;;;;;;;5.43;5.03;;;;;;;32.40;19.98;94797.91;5014296;28;20050;-43
2021/09/21 00:16:15;;;;;;;5.63;5.13;;;;;;;32.42;20.33;94803.66;4995160;28;20058;-44
2021/09/21 00:18:43;;;;;;;5.40;5.00;;;;;;;32.68;20.05;94798.50;4991547;28;20060;-45
2021/09/21 00:21:09;;;;;;;5.68;5.18;;;;;;;33.00;19.74;94797.84;5015251;28;20049;-44
2021/09/21 00:23:37;;;;;;;5.30;4.90;;;;;;;32.57;19.88;94798.72;5025399;28;20041;-47
2021/09/21 00:26:04;;;;;;;5.55;5.05;;;;;;;32.64;19.68;94792.41;5035174;28;20052;-44
2021/09/21 00:28:31;;;;;;;5.32;4.93;;;;;;;32.73;19.98;94789.88;5033842;28;20042;-45
2021/09/21 00:31:07;;;;;;;5.82;5.15;;;;;;;32.87;19.72;94788.88;5030509;28;20053;-46
2021/09/21 00:34:06;;;;;;;5.85;5.35;;;;;;;32.75;19.61;94788.28;5033238;28;20045;-43
2021/09/21 00:36:22;;;;;;;5.35;4.95;;;;;;;32.45;20.30;94792.00;5026289;28;20380;-45
2021/09/21 00:38:49;;;;;;;5.90;5.40;;;;;;;32.71;19.70;94786.84;5013494;28;20061;-44
2021/09/21 00:41:16;;;;;;;6.10;5.60;;;;;;;32.57;20.13;94781.72;5014504;28;20057;-44
2021/09/21 00:43:46;;;;;;;5.82;5.32;;;;;;;32.36;20.32;94782.91;5030861;28;20045;-44
2021/09/21 00:46:13;;;;;;;5.65;5.15;;;;;;;32.50;20.26;94788.78;5034695;28;20052;-44
2021/09/21 00:48:40;;;;;;;6.50;6.00;;;;;;;32.57;20.26;94787.91;5034504;28;20430;-44
2021/09/21 00:51:08;;;;;;;5.82;5.32;;;;;;;32.68;20.06;94776.84;5034494;28;20048;-44
2021/09/21 00:53:35;;;;;;;5.75;5.28;;;;;;;32.43;20.29;94783.53;5013556;28;20046;-44
2021/09/21 00:56:02;;;;;;;6.07;5.30;;;;;;;32.27;20.40;94788.88;5014938;28;20049;-44
2021/09/21 00:58:30;;;;;;;6.05;5.55;;;;;;;32.48;19.78;94791.16;5013702;28;20042;-43
2021/09/21 01:00:57;;;;;;;5.63;5.20;;;;;;;32.34;20.06;94785.28;5014964;28;20076;-45
2021/09/21 01:03:24;;;;;;;6.18;5.57;;;;;;;32.25;20.09;94788.47;5027285;28;20045;-45
2021/09/21 01:05:51;;;;;;;5.40;5.00;;;;;;;32.48;19.97;94783.03;5030535;28;20053;-44
2021/09/21 01:08:18;;;;;;;6.00;5.50;;;;;;;32.77;19.60;94785.16;5014432;28;20433;-44
2021/09/21 01:10:45;;;;;;;5.40;5.00;;;;;;;32.65;20.09;94788.53;5014581;28;20050;-45
2021/09/21 01:13:12;;;;;;;5.78;5.28;;;;;;;32.80;19.57;94784.38;5025602;28;20045;-44
2021/09/21 01:15:39;;;;;;;5.70;5.22;;;;;;;33.10;19.44;94775.22;5037637;28;20052;-45
2021/09/21 01:18:06;;;;;;;5.65;5.15;;;;;;;32.59;19.58;94771.25;5038125;28;20056;-44
2021/09/21 01:20:34;;;;;;;6.10;5.35;;;;;;;32.75;20.19;94782.13;5037559;28;20053;-44
2021/09/21 01:23:05;;;;;;;5.57;5.07;;;;;;;32.77;19.69;94782.47;5028788;28;20046;-44
2021/09/21 01:25:33;;;;;;;5.63;5.18;;;;;;;32.72;19.65;94783.72;5018468;28;20053;-44
2021/09/21 01:28:00;;;;;;;5.88;5.38;;;;;;;32.95;19.88;94785.59;5018056;28;20326;-44
2021/09/21 01:30:27;;;;;;;5.70;5.20;;;;;;;32.25;20.32;94793.13;5018390;28;20064;-44
2021/09/21 01:33:06;;;;;;;5.38;4.97;;;;;;;32.08;20.39;94795.00;5027424;28;20049;-43
2021/09/21 01:35:33;;;;;;;5.88;5.38;;;;;;;32.35;20.48;94792.22;5037116;28;20056;-43
2021/09/21 01:38:00;;;;;;;6.30;5.70;;;;;;;32.19;20.70;94793.63;5017641;28;20064;-44
2021/09/21 01:40:28;;;;;;;6.45;5.88;;;;;;;32.01;20.78;94789.69;5018245;28;20050;-44
2021/09/21 01:42:55;;;;;;;6.25;5.43;;;;;;;32.08;20.53;94795.00;5023790;28;20053;-43
2021/09/21 01:45:22;;;;;;;5.80;5.30;;;;;;;32.26;20.34;94795.44;5028157;28;20052;-43
2021/09/21 01:47:49;;;;;;;5.63;5.20;;;;;;;32.12;20.61;94801.09;5037246;28;20053;-44
2021/09/21 01:58:15;;;;;;;6.07;5.57;;;;;;;32.31;20.49;94796.94;5037843;28;20057;-44
2021/09/21 02:00:43;;;;;;;5.85;5.35;;;;;;;31.60;21.18;94794.22;5029596;28;20476;-44
2021/09/21 02:03:10;;;;;;;6.07;5.57;;;;;;;31.67;21.07;94798.75;5016856;28;20462;-43
2021/09/21 02:05:38;;;;;;;5.95;5.45;;;;;;;31.83;20.96;94800.84;5016225;28;20053;-43
2021/09/21 02:08:06;;;;;;;5.53;5.03;;;;;;;31.78;20.88;94798.63;5006536;28;20046;-43
2021/09/21 02:10:33;;;;;;;5.50;5.00;;;;;;;31.98;20.41;94790.53;5016814;28;20053;-44
2021/09/21 02:13:00;;;;;;;5.68;5.18;;;;;;;31.67;21.08;94792.59;5017342;28;20050;-43
2021/09/21 02:15:31;;;;;;;5.80;5.30;;;;;;;31.86;20.44;94795.38;5017431;28;20050;-44
2021/09/21 02:17:59;;;;;;;5.85;5.43;;;;;;;31.68;20.78;94794.88;5017506;28;20049;-44
2021/09/21 02:20:27;;;;;;;5.65;5.15;;;;;;;31.93;20.46;94804.53;5021162;28;20440;-45
2021/09/21 02:22:55;;;;;;;5.32;4.82;;;;;;;31.75;20.68;94800.22;5036015;28;20045;-45
2021/09/21 02:25:22;;;;;;;5.90;5.38;;;;;;;31.57;20.72;94799.69;5032354;28;20061;-44
2021/09/21 02:27:49;;;;;;;5.75;5.25;;;;;;;31.81;20.73;94790.44;5031315;28;20446;-44
2021/09/21 02:30:16;;;;;;;5.80;5.20;;;;;;;31.50;20.55;94800.56;5036894;28;20052;-44
2021/09/21 02:32:44;;;;;;;5.78;5.28;;;;;;;31.51;20.95;94801.34;5026599;28;20049;-44
2021/09/21 02:35:11;;;;;;;6.15;5.43;;;;;;;31.71;20.77;94799.47;5036788;28;20056;-44
2021/09/21 02:37:38;;;;;;;4.97;4.57;;;;;;;31.32;21.08;94793.91;5018828;28;20061;-45
2021/09/21 02:40:08;;;;;;;5.28;4.88;;;;;;;31.31;20.92;94797.78;5017024;28;20424;-44
2021/09/21 02:42:35;;;;;;;5.10;4.60;;;;;;;31.57;20.99;94788.88;5021342;28;20038;-44
2021/09/21 02:45:05;;;;;;;5.75;4.95;;;;;;;31.21;21.20;94792.13;5037053;28;20080;-44
2021/09/21 02:47:32;;;;;;;4.72;4.32;;;;;;;31.41;20.94;94786.03;5036618;28;20467;-44
2021/09/21 02:49:59;;;;;;;4.82;4.43;;;;;;;31.48;20.57;94777.81;5036374;28;20049;-44
2021/09/21 02:52:27;;;;;;;5.28;4.78;;;;;;;31.42;20.93;94779.47;5032231;28;20046;-43
2021/09/21 02:54:54;;;;;;;4.68;4.28;;;;;;;31.36;21.22;94789.22;5016853;28;20404;-44
2021/09/21 02:57:21;;;;;;;4.90;4.40;;;;;;;31.27;20.87;94797.84;5016483;28;20058;-43
2021/09/21 02:59:48;;;;;;;5.05;4.57;;;;;;;31.47;20.63;94800.59;5015972;28;20061;-44
2021/09/21 03:02:16;;;;;;;4.97;4.53;;;;;;;31.35;20.88;94803.91;5016282;28;20449;-44
2021/09/21 03:05:20;;;;;;;4.90;4.50;;;;;;;31.23;20.81;94811.41;5016680;28;20053;-44
2021/09/21 03:07:43;;;;;;;4.88;4.45;;;;;;;31.41;20.77;94813.81;5001739;28;20053;-44
2021/09/21 03:18:16;;;;;;;4.03;3.65;;;;;;;31.24;20.93;94841.88;5035635;28;20050;-43
2021/09/21 03:20:43;;;;;;;4.60;4.20;;;;;;;31.33;20.70;94841.34;5035497;28;20045;-43
2021/09/21 03:23:11;;;;;;;4.35;3.88;;;;;;;31.03;20.96;94848.28;5026509;28;20049;-44
2021/09/21 03:25:38;;;;;;;4.15;3.85;;;;;;;31.15;20.87;94855.06;5015476;28;20052;-44
2021/09/21 03:28:06;;;;;;;4.22;3.90;;;;;;;31.08;20.98;94861.31;5015734;28;20053;-44
2021/09/21 03:30:33;;;;;;;4.43;4.03;;;;;;;31.26;20.62;94859.19;5016149;28;20050;-44
2021/09/21 03:33:00;;;;;;;4.47;4.07;;;;;;;31.13;21.01;94858.16;5022897;28;20049;-44
2021/09/21 03:35:27;;;;;;;4.35;3.92;;;;;;;31.09;20.90;94860.16;5034445;28;20056;-44
2021/09/21 03:37:54;;;;;;;4.93;3.95;;;;;;;31.32;20.35;94866.84;5026447;28;20445;-43
2021/09/21 03:40:21;;;;;;;4.47;4.10;;;;;;;31.22;20.82;94866.56;5015692;28;20053;-43
2021/09/21 03:42:48;;;;;;;4.30;4.00;;;;;;;30.96;20.95;94867.25;5015220;28;20052;-44
2021/09/21 03:45:15;;;;;;;4.47;4.07;;;;;;;31.08;21.12;94872.13;5015520;28;20049;-44
2021/09/21 03:47:42;;;;;;;4.80;4.35;;;;;;;31.05;21.11;94870.25;5015564;28;20056;-45
2021/09/21 03:50:10;;;;;;;4.50;3.90;;;;;;;31.14;20.87;94875.91;5014982;28;20042;-43
2021/09/21 03:52:37;;;;;;;4.03;3.67;;;;;;;31.28;20.80;94878.44;5018364;28;20045;-43
2021/09/21 03:55:04;;;;;;;4.32;3.92;;;;;;;31.19;20.86;94877.41;5035398;28;20042;-44
2021/09/21 03:57:32;;;;;;;3.60;3.30;;;;;;;31.27;20.68;94878.84;5035306;28;20045;-43
2021/09/21 03:59:59;;;;;;;4.57;3.70;;;;;;;31.60;20.89;94885.34;5034044;28;20057;-43
2021/09/21 04:02:26;;;;;;;4.95;3.80;;;;;;;31.72;20.62;94876.66;5015624;28;20449;-45
2021/09/21 04:04:53;;;;;;;4.78;3.95;;;;;;;30.56;22.30;94880.41;5004136;28;20053;-48
2021/09/21 04:07:20;;;;;;;5.03;3.90;;;;;;;32.28;20.50;94882.38;4999713;28;20049;-48
2021/09/21 04:09:47;;;;;;;3.75;3.45;;;;;;;32.99;19.30;94881.03;5001599;28;20584;-50
2021/09/21 04:12:14;;;;;;;8.38;3.92;;;;;;;33.81;18.48;94881.22;4994650;28;20421;-44
2021/09/21 04:14:41;;;;;;;5.10;3.25;;;;;;;34.18;18.45;94880.72;5002362;28;20366;-51
2021/09/21 04:17:09;;;;;;;5.32;3.28;;;;;;;34.66;18.14;94872.94;4995741;28;20046;-47
2021/09/21 04:19:36;;;;;;;4.38;3.47;;;;;;;36.85;16.53;94891.06;5001474;28;20049;-49
2021/09/21 04:22:03;;;;;;;4.65;3.30;;;;;;;35.08;19.03;94890.00;5005769;28;20054;-48
2021/09/21 04:24:30;;;;;;;3.38;3.08;;;;;;;35.56;18.88;94883.56;5010575;28;20092;-50
2021/09/21 04:26:57;;;;;;;3.40;3.10;;;;;;;35.82;18.58;94884.31;4995176;28;20057;-46
2021/09/21 04:29:24;;;;;;;4.07;3.40;;;;;;;36.05;18.11;94886.69;4993402;28;20054;-50
2021/09/21 04:31:53;;;;;;;5.57;2.85;;;;;;;36.43;18.02;94883.13;5001995;28;20061;-50
2021/09/21 04:34:20;;;;;;;3.45;3.15;;;;;;;35.56;18.68;94883.56;5011311;28;20437;-51
2021/09/21 04:36:47;;;;;;;3.17;2.88;;;;;;;33.84;19.69;94869.56;5003496;28;20054;-47
2021/09/21 04:39:14;;;;;;;4.00;3.22;;;;;;;34.40;19.68;94878.25;5000800;28;20038;-50
2021/09/21 04:41:41;;;;;;;6.25;3.95;;;;;;;35.30;19.96;94882.75;5000715;28;20050;-50
2021/09/21 04:44:09;;;;;;;5.22;3.10;;;;;;;36.42;17.89;94870.72;5006667;28;20042;-50
2021/09/21 04:46:36;;;;;;;4.80;3.10;;;;;;;35.29;17.92;94875.81;4994351;28;20053;-48
2021/09/21 04:49:08;;;;;;;3.40;3.10;;;;;;;34.21;18.77;94882.59;4994578;28;20050;-47
2021/09/21 04:51:35;;;;;;;4.15;2.97;;;;;;;33.45;19.22;94876.63;5000831;28;20480;-48
2021/09/21 04:54:02;;;;;;;5.05;3.28;;;;;;;34.07;19.24;94882.91;5021104;28;20491;-45
2021/09/21 04:56:29;;;;;;;4.32;3.40;;;;;;;33.19;19.21;94888.38;5028127;28;20056;-47
2021/09/21 04:58:56;;;;;;;5.05;3.28;;;;;;;32.87;19.49;94887.09;4995169;28;20053;-47
2021/09/21 05:01:24;;;;;;;4.10;3.17;;;;;;;32.57;19.21;94895.38;4998236;28;20057;-47
2021/09/21 05:03:51;;;;;;;4.15;2.90;;;;;;;32.59;19.01;94893.78;5025316;28;20060;-48
2021/09/21 05:06:18;;;;;;;3.08;2.78;;;;;;;32.49;18.90;94895.50;5023672;28;20069;-47
2021/09/21 05:08:46;;;;;;;2.85;2.60;;;;;;;32.51;19.15;94892.38;5009557;28;20080;-49
2021/09/21 05:11:13;;;;;;;2.97;2.67;;;;;;;32.47;18.73;94897.84;5014447;28;20049;-47
2021/09/21 05:13:40;;;;;;;3.67;3.35;;;;;;;32.30;19.00;94898.94;5023840;28;20623;-47
2021/09/21 05:16:07;;;;;;;2.80;2.60;;;;;;;32.25;19.42;94890.50;5033736;28;20045;-47
2021/09/21 05:18:34;;;;;;;3.63;2.92;;;;;;;32.59;18.74;94903.84;5034452;28;20056;-49
2021/09/21 05:21:01;;;;;;;3.35;3.05;;;;;;;32.63;18.92;94899.13;5033618;28;20052;-48
2021/09/21 05:23:28;;;;;;;3.22;2.90;;;;;;;33.11;18.32;94910.19;5026398;28;20053;-48
2021/09/21 05:25:56;;;;;;;3.80;2.80;;;;;;;33.11;18.20;94907.50;5014870;28;20049;-46
2021/09/21 05:28:23;;;;;;;3.30;2.78;;;;;;;33.05;18.46;94919.22;5013509;28;20048;-47
2021/09/21 05:30:50;;;;;;;3.08;2.78;;;;;;;32.67;18.76;94916.06;5014721;28;20050;-46
2021/09/21 05:33:17;;;;;;;3.58;3.00;;;;;;;31.96;19.61;94912.59;5019473;28;20052;-47
2021/09/21 05:35:44;;;;;;;6.43;3.20;;;;;;;32.02;19.64;94921.78;5030766;28;20060;-49
2021/09/21 05:38:11;;;;;;;5.75;3.20;;;;;;;32.28;19.73;94925.66;5004974;28;20440;-47
2021/09/21 05:40:40;;;;;;;3.30;3.00;;;;;;;31.61;19.98;94927.38;5014708;28;20046;-47
2021/09/21 05:43:07;;;;;;;4.22;3.20;;;;;;;31.50;19.90;94934.88;5017859;28;20041;-51
2021/09/21 05:45:35;;;;;;;3.20;2.90;;;;;;;31.58;19.69;94941.72;5021938;28;20056;-47
2021/09/21 05:48:03;;;;;;;3.45;3.10;;;;;;;31.09;20.45;94933.06;4994738;28;20061;-46
2021/09/21 05:50:30;;;;;;;3.20;2.90;;;;;;;31.78;20.35;94944.56;4994812;28;20050;-47
2021/09/21 05:52:57;;;;;;;5.20;3.58;;;;;;;31.11;20.40;94943.44;5009767;28;20448;-49
2021/09/21 05:55:25;;;;;;;5.28;3.40;;;;;;;31.73;20.05;94948.47;5033930;28;20060;-48
2021/09/21 05:57:52;;;;;;;4.28;3.20;;;;;;;31.81;19.45;94941.81;5034192;28;20045;-46
2021/09/21 06:00:20;;;;;;;4.90;2.90;;;;;;;32.02;19.45;94943.41;4991184;28;20081;-53
2021/09/21 06:02:47;;;;;;;3.58;3.00;;;;;;;32.14;19.30;94936.66;5010476;28;20049;-50
2021/09/21 06:05:14;;;;;;;5.00;3.30;;;;;;;32.28;18.68;94938.41;5037410;28;20435;-48
2021/09/21 06:07:48;;;;;;;3.33;3.03;;;;;;;32.11;18.87;94946.34;5019187;28;20046;-49
2021/09/21 06:10:19;;;;;;;3.22;2.92;;;;;;;32.24;18.96;94938.41;5017236;28;20045;-47
2021/09/21 06:12:47;;;;;;;3.97;3.10;;;;;;;32.08;18.98;94949.13;5016601;28;20056;-47
2021/09/21 06:15:14;;;;;;;3.53;3.22;;;;;;;32.09;18.86;94953.34;5035106;28;20061;-54
2021/09/21 06:17:43;;;;;;;4.25;3.60;;;;;;;32.19;18.73;94955.88;5036509;28;20364;-48
2021/09/21 06:20:11;;;;;;;3.95;3.20;;;;;;;32.05;19.24;94952.66;5037436;28;20057;-48
2021/09/21 06:22:41;;;;;;;4.05;3.55;;;;;;;32.05;19.18;94958.06;5037004;28;20436;-47
2021/09/21 06:25:09;;;;;;;4.13;3.72;;;;;;;32.03;19.13;94957.69;5017289;28;20057;-46
2021/09/21 06:27:36;;;;;;;4.35;3.38;;;;;;;32.03;19.06;94960.41;5016928;28;20049;-47
2021/09/21 06:30:09;;;;;;;3.60;3.30;;;;;;;31.97;18.89;94962.03;5016641;28;20052;-48
2021/09/21 06:32:37;;;;;;;3.42;3.13;;;;;;;32.05;18.92;94963.47;5017078;28;20045;-49
2021/09/21 06:35:05;;;;;;;3.70;3.03;;;;;;;32.05;19.13;94963.47;5034629;28;20053;-47
2021/09/21 06:37:35;;;;;;;5.05;3.58;;;;;;;32.12;18.71;94966.06;5019347;28;20060;-46
2021/09/21 06:40:03;;;;;;;3.80;3.45;;;;;;;31.87;19.15;94963.72;5017116;28;20053;-51
2021/09/21 06:42:33;;;;;;;3.83;3.53;;;;;;;31.80;19.04;94963.84;5016266;28;20045;-50
2021/09/21 06:45:03;;;;;;;5.28;3.58;;;;;;;32.01;18.81;94970.84;5016479;28;20050;-46
2021/09/21 06:47:30;;;;;;;4.38;3.80;;;;;;;31.98;19.28;94969.72;5016546;28;20050;-49
2021/09/21 06:49:57;;;;;;;4.15;3.50;;;;;;;32.12;19.01;94976.88;5017104;28;20052;-48
2021/09/21 06:52:25;;;;;;;5.88;3.70;;;;;;;31.92;19.16;94978.72;5016999;28;20049;-47
2021/09/21 06:54:52;;;;;;;3.90;3.47;;;;;;;32.17;18.84;94976.41;5031906;28;20049;-47
2021/09/21 06:57:19;;;;;;;4.00;3.70;;;;;;;31.99;19.10;94975.91;5036513;28;20440;-47
2021/09/21 06:59:46;;;;;;;4.68;4.28;;;;;;;32.04;18.83;94995.16;5036420;28;20053;-46
2021/09/21 07:02:14;;;;;;;5.30;4.07;;;;;;;32.14;19.54;94985.34;5036386;28;20061;-47
2021/09/21 07:04:41;;;;;;;4.68;4.28;;;;;;;31.84;19.90;94984.22;5020829;28;20042;-48
2021/09/21 07:07:09;;;;;;;4.70;3.85;;;;;;;32.15;18.91;94984.16;5002277;28;20385;-46
2021/09/21 07:09:36;;;;;;;5.30;3.72;;;;;;;31.89;19.36;94989.16;4997059;28;20058;-48
2021/09/21 07:12:03;;;;;;;4.10;3.80;;;;;;;31.91;19.27;94986.06;4996674;28;20046;-47
2021/09/21 07:14:30;;;;;;;4.50;4.10;;;;;;;32.12;18.85;94995.78;5021488;28;20049;-46
2021/09/21 07:16:57;;;;;;;6.55;5.90;;;;;;;32.12;18.40;94984.97;5035960;28;20049;-48
2021/09/21 07:19:24;;;;;;;4.55;4.15;;;;;;;32.01;18.81;94989.78;5036130;28;20053;-48
2021/09/21 07:21:51;;;;;;;4.70;4.30;;;;;;;31.92;18.63;94994.94;5035898;28;20399;-48
2021/09/21 07:24:19;;;;;;;4.93;4.30;;;;;;;31.97;18.51;94999.88;5025340;28;20041;-50
2021/09/21 07:26:48;;;;;;;4.80;4.40;;;;;;;32.08;18.75;95000.50;5015973;28;20058;-46
2021/09/21 07:29:15;;;;;;;4.95;4.50;;;;;;;32.22;18.51;95002.97;5015444;28;20054;-50
2021/09/21 07:31:42;;;;;;;4.55;4.15;;;;;;;32.00;18.93;95015.28;5015801;28;20058;-47
2021/09/21 07:34:09;;;;;;;5.05;4.65;;;;;;;32.36;18.31;95015.56;5015630;28;20057;-49
2021/09/21 07:36:37;;;;;;;4.90;4.50;;;;;;;32.15;18.87;95016.59;5006279;28;20061;-51
2021/09/21 07:39:04;;;;;;;4.95;4.45;;;;;;;32.14;18.54;95023.19;5007268;28;20053;-48
2021/09/21 07:41:32;;;;;;;6.30;4.55;;;;;;;32.10;18.67;95014.38;5010826;28;20053;-48
2021/09/21 07:43:59;;;;;;;5.35;4.18;;;;;;;31.82;18.80;95029.81;5010371;28;20033;-46
2021/09/21 07:46:26;;;;;;;5.57;4.05;;;;;;;32.03;18.71;95025.31;5035617;28;20353;-47
2021/09/21 07:48:53;;;;;;;4.68;4.28;;;;;;;32.29;18.63;95038.06;5035177;28;20048;-50
2021/09/21 07:51:20;;;;;;;5.00;4.50;;;;;;;32.03;18.97;95030.72;5035495;28;20053;-46
2021/09/21 07:53:47;;;;;;;4.72;4.32;;;;;;;32.09;18.48;95024.44;5029485;28;20046;-50
2021/09/21 07:56:14;;;;;;;4.78;4.20;;;;;;;32.31;18.24;95030.31;5015708;28;20050;-47
2021/09/21 07:58:41;;;;;;;4.43;4.03;;;;;;;32.18;18.71;95038.19;5015162;28;20436;-45
2021/09/21 08:01:08;;;;;;;4.95;4.45;;;;;;;32.29;18.52;95043.47;5015491;28;20372;-46
2021/09/21 08:03:35;;;;;;;4.70;4.30;;;;;;;32.30;18.71;95045.00;5018592;28;20049;-47
2021/09/21 08:06:03;;;;;;;5.75;4.18;;;;;;;32.10;18.49;95046.81;5030564;28;20046;-45
2021/09/21 08:08:30;;;;;;;4.60;4.20;;;;;;;32.26;18.65;95051.63;5015179;28;20050;-47
2021/09/21 08:11:01;;;;;;;4.97;3.83;;;;;;;32.30;18.83;95050.44;5015267;28;20045;-47
2021/09/21 08:13:30;;;;;;;4.85;4.38;;;;;;;32.16;18.61;95056.00;5014941;28;20474;-47
2021/09/21 08:15:57;;;;;;;4.38;3.85;;;;;;;32.32;18.33;95053.47;5015294;28;20053;-47
2021/09/21 08:18:25;;;;;;;4.38;3.78;;;;;;;32.46;18.04;95053.25;5015349;28;20475;-48
2021/09/21 08:20:52;;;;;;;4.75;4.05;;;;;;;32.36;18.19;95058.84;5015029;28;20053;-45
2021/09/21 08:23:19;;;;;;;4.72;3.85;;;;;;;32.04;18.71;95046.53;5014833;28;20049;-47
2021/09/21 08:25:46;;;;;;;4.15;3.85;;;;;;;32.34;18.48;95043.00;5035083;28;20037;-47
2021/09/21 08:28:13;;;;;;;4.30;3.90;;;;;;;32.32;18.71;95045.38;5034883;28;20061;-51
2021/09/21 08:30:41;;;;;;;4.20;3.80;;;;;;;32.41;18.40;95039.44;5034713;28;20049;-48
2021/09/21 08:33:08;;;;;;;3.80;3.50;;;;;;;32.51;18.63;95050.06;5034642;28;20053;-52
2021/09/21 08:35:35;;;;;;;5.57;3.78;;;;;;;32.78;18.39;95041.13;5014151;28;20041;-50
2021/09/21 08:38:03;;;;;;;4.30;3.58;;;;;;;32.70;18.58;95035.09;4994319;28;20053;-48
2021/09/21 08:40:31;;;;;;;4.25;3.85;;;;;;;32.70;18.67;95034.31;5005858;28;20046;-49
2021/09/21 08:42:59;;;;;;;3.60;3.30;;;;;;;32.76;18.50;95033.41;5015140;28;20055;-47
2021/09/21 08:45:28;;;;;;;4.07;3.78;;;;;;;32.71;18.59;95022.31;5014665;28;20053;-47
2021/09/21 08:47:55;;;;;;;7.80;3.90;;;;;;;32.89;18.11;95033.63;5014824;28;20061;-51
2021/09/21 08:50:23;;;;;;;4.00;3.70;;;;;;;32.79;18.60;95032.66;5014684;28;20057;-48
2021/09/21 08:52:51;;;;;;;3.83;3.53;;;;;;;32.87;18.43;95030.56;5014796;28;20464;-47
2021/09/21 08:55:18;;;;;;;3.80;3.42;;;;;;;32.99;18.17;95027.25;5030083;28;20444;-48
2021/09/21 08:57:46;;;;;;;5.53;3.60;;;;;;;33.04;18.39;95026.75;5034792;28;20053;-48
2021/09/21 09:00:34;;;;;;;4.10;3.55;;;;;;;33.34;18.17;95033.22;5019939;28;20041;-47
2021/09/21 09:03:16;;;;;;;3.92;3.40;;;;;;;33.00;18.23;95026.06;5014653;28;20050;-47
2021/09/21 09:05:44;;;;;;;4.65;3.20;;;;;;;33.17;18.30;95026.16;5031439;28;20359;-52
2021/09/21 09:08:12;;;;;;;3.55;3.25;;;;;;;33.16;17.87;95032.75;5013666;28;20050;-48
2021/09/21 09:10:39;;;;;;;3.90;3.50;;;;;;;33.14;18.09;95029.72;5013735;28;20523;-52
2021/09/21 09:13:17;;;;;;;3.70;3.40;;;;;;;32.91;18.22;95033.22;5013398;28;20052;-48
2021/09/21 09:15:55;;;;;;;3.60;3.30;;;;;;;33.13;18.29;95039.03;5031770;28;20054;-52
2021/09/21 09:18:27;;;;;;;5.03;3.42;;;;;;;33.48;17.73;95027.50;5033527;28;20056;-46
2021/09/21 09:20:58;;;;;;;4.40;3.17;;;;;;;33.35;18.00;95029.34;5033549;28;20045;-55
2021/09/21 09:23:26;;;;;;;3.35;3.05;;;;;;;33.39;17.69;95030.03;5034203;28;20104;-50
2021/09/21 09:25:53;;;;;;;3.28;2.97;;;;;;;33.06;17.63;95035.28;5014296;28;20042;-47
2021/09/21 09:28:26;;;;;;;3.10;2.80;;;;;;;33.60;17.28;95039.69;5014509;28;20372;-47
2021/09/21 09:30:55;;;;;;;3.30;3.00;;;;;;;33.73;17.14;95040.56;5013742;28;20050;-50
2021/09/21 09:33:23;;;;;;;3.50;3.20;;;;;;;33.82;17.23;95050.81;5012189;28;20050;-47
2021/09/21 09:35:51;;;;;;;4.22;3.25;;;;;;;33.68;17.85;95044.53;5029368;28;20058;-49
2021/09/21 09:38:20;;;;;;;3.38;3.08;;;;;;;34.10;17.46;95055.69;5018057;28;20445;-48
2021/09/21 09:40:50;;;;;;;2.90;2.70;;;;;;;34.69;16.90;95052.00;5018437;28;20483;-48
2021/09/21 09:43:21;;;;;;;3.15;2.95;;;;;;;34.79;17.00;95045.53;5017486;28;20057;-50
2021/09/21 09:45:50;;;;;;;3.05;2.67;;;;;;;35.22;16.48;95049.91;5014180;28;20050;-48
2021/09/21 09:48:19;;;;;;;3.10;2.90;;;;;;;34.76;16.40;95057.25;5017712;28;20045;-51
2021/09/21 09:50:48;;;;;;;4.35;2.60;;;;;;;34.20;16.88;95053.91;5018081;28;20052;-50
2021/09/21 09:53:17;;;;;;;2.88;2.67;;;;;;;34.51;16.61;95047.00;5017726;28;20057;-51
2021/09/21 09:55:49;;;;;;;2.60;2.40;;;;;;;34.08;16.75;95051.84;5034947;28;20049;-49
2021/09/21 09:58:18;;;;;;;3.13;2.83;;;;;;;34.52;16.49;95053.97;5037102;28;20052;-49
2021/09/21 10:00:45;;;;;;;3.65;3.35;;;;;;;34.71;16.75;95049.63;5037630;28;20053;-49
2021/09/21 10:03:13;;;;;;;3.38;2.95;;;;;;;34.55;16.61;95052.34;5036657;28;20052;-48
2021/09/21 10:05:41;;;;;;;2.88;2.58;;;;;;;34.45;16.63;95048.72;5035396;28;20471;-47
2021/09/21 10:08:09;;;;;;;3.03;2.63;;;;;;;34.72;16.25;95048.44;5016723;28;20476;-50
2021/09/21 10:10:39;;;;;;;2.83;2.45;;;;;;;34.38;16.86;95045.41;5017069;28;20464;-49
2021/09/21 10:13:10;;;;;;;2.53;2.33;;;;;;;34.23;16.80;95055.78;5017497;28;20360;-47
2021/09/21 10:15:39;;;;;;;3.03;2.75;;;;;;;34.63;16.58;95046.34;5016245;28;20056;-48
2021/09/21 10:18:15;;;;;;;3.08;2.78;;;;;;;34.75;16.43;95049.53;5017645;28;20053;-52
2021/09/21 10:20:45;;;;;;;12.38;11.23;;;;;;;34.46;16.67;95046.75;5017580;28;20045;-49
2021/09/21 10:23:12;;;;;;;7.95;6.95;;;;;;;34.70;16.46;95042.69;5017368;28;20056;-47
2021/09/21 10:25:41;;;;;;;4.88;4.32;;;;;;;34.86;16.30;95045.38;5032262;28;20475;-49
2021/09/21 10:28:18;;;;;;;4.22;3.83;;;;;;;35.05;16.07;95037.56;5037092;28;20045;-49
2021/09/21 10:30:56;;;;;;;4.40;4.00;;;;;;;35.16;16.31;95038.81;5037102;28;20065;-48
2021/09/21 10:33:25;;;;;;;3.80;3.45;;;;;;;34.86;16.75;95042.66;5036897;28;20364;-48
2021/09/21 10:35:53;;;;;;;3.63;3.22;;;;;;;34.30;17.03;95037.38;5014704;28;20053;-48
2021/09/21 10:38:21;;;;;;;4.88;3.60;;;;;;;34.49;16.78;95043.19;4996849;28;20397;-49
2021/09/21 10:40:53;;;;;;;4.35;3.28;;;;;;;34.62;16.73;95046.75;4997951;28;20065;-48
2021/09/21 10:43:31;;;;;;;3.20;2.90;;;;;;;34.38;17.12;95042.69;4980113;28;20042;-48
2021/09/21 10:46:10;;;;;;;7.88;6.40;;;;;;;34.82;16.92;95055.56;5032099;28;20048;-49
2021/09/21 10:48:40;;;;;;;4.88;3.53;;;;;;;34.94;16.47;95051.41;5036756;28;20049;-50
2021/09/21 10:51:08;;;;;;;5.15;3.40;;;;;;;34.68;16.75;95053.19;5036311;28;20045;-52
2021/09/21 10:53:36;;;;;;;4.22;3.17;;;;;;;34.66;16.64;95052.88;5036487;28;20045;-47
2021/09/21 10:56:12;;;;;;;3.45;3.15;;;;;;;34.99;16.20;95052.84;5016964;28;20052;-48
2021/09/21 10:58:50;;;;;;;2.95;2.65;;;;;;;34.24;16.73;95044.50;5015695;28;20042;-50
2021/09/21 11:01:17;;;;;;;3.75;2.35;;;;;;;34.72;16.15;95039.53;5016612;28;20520;-50
2021/09/21 11:03:45;;;;;;;2.30;2.10;;;;;;;34.54;16.36;95037.25;5016860;28;20057;-49
2021/09/21 11:06:14;;;;;;;2.58;1.90;;;;;;;34.59;16.12;95036.72;5012542;28;20683;-53
2021/09/21 11:08:41;;;;;;;3.75;1.88;;;;;;;34.78;15.84;95038.59;5016322;28;20077;-48
2021/09/21 11:11:09;;;;;;;1.85;1.75;;;;;;;34.50;15.86;95040.06;5016613;28;20050;-47
2021/09/21 11:13:40;;;;;;;3.00;1.90;;;;;;;34.83;15.65;95029.91;5015366;28;20057;-50
2021/09/21 11:16:09;;;;;;;3.15;1.77;;;;;;;34.74;15.97;95032.50;5032885;28;20057;-49
2021/09/21 11:18:36;;;;;;;4.57;1.70;;;;;;;34.77;15.71;95026.19;5036172;28;20057;-48
2021/09/21 11:21:05;;;;;;;1.98;1.50;;;;;;;34.62;15.75;95019.63;5024142;28;20053;-49
2021/09/21 11:23:41;;;;;;;2.35;2.05;;;;;;;34.73;15.94;95020.09;5016092;28;20453;-48
2021/09/21 11:26:11;;;;;;;1.88;1.70;;;;;;;34.77;16.05;95015.34;5016026;28;20052;-47
2021/09/21 11:28:45;;;;;;;2.67;1.70;;;;;;;35.02;15.94;95020.16;5016080;28;20049;-48
2021/09/21 11:31:13;;;;;;;2.13;1.90;;;;;;;34.95;15.92;95019.59;5024142;28;20060;-49
2021/09/21 11:33:42;;;;;;;1.92;1.73;;;;;;;34.75;16.09;95023.16;5035918;28;20057;-49
2021/09/21 11:36:12;;;;;;;3.35;1.77;;;;;;;34.53;16.36;95022.16;5029431;28;20060;-49
2021/09/21 11:38:42;;;;;;;2.25;1.85;;;;;;;34.48;16.17;95018.00;4995058;28;20057;-49
2021/09/21 11:41:10;;;;;;;2.88;1.90;;;;;;;34.82;16.07;95022.97;5004193;28;20057;-49
2021/09/21 11:43:39;;;;;;;7.75;7.05;;;;;;;34.48;15.94;95017.25;5016058;28;20049;-54
2021/09/21 11:46:06;;;;;;;4.32;3.92;;;;;;;34.14;16.24;95015.69;5015951;28;20053;-48
2021/09/21 11:48:33;;;;;;;4.57;3.13;;;;;;;34.07;16.61;95015.81;5015879;28;20349;-55
2021/09/21 11:51:00;;;;;;;3.38;2.53;;;;;;;34.53;16.11;95011.28;5009270;28;20053;-50
2021/09/21 11:53:30;;;;;;;2.80;2.60;;;;;;;34.01;16.41;95025.66;4995890;28;20057;-48
2021/09/21 11:56:00;;;;;;;2.60;2.40;;;;;;;34.26;15.68;95020.44;4995837;28;20057;-49